Othello — LXOD — position and weather

sailwx.info

Track history (hours):
 
Tides and Currents Weather Stations Pressure Air Temp Water Temp Dewpoint Dewpoint Depression Visibility Wind Speed Wind Dir Waves Ship Positions

Othello

Last reported at 2014-Sep-30 15:34 UTC. Time now 2014-Sep-30 16:01 UTC.
Position N 53°34' E 000°25'.

Length 104 m; draft 7.4 m.

Type: Ship. MMSI: 253279000.

Date/timePositionNaut miles runAvg speedWind from/ knotsBaromVisibWave heightAir tempDewpointWater temp
2014-Sep-30 15:34N 53°34' E 000°25'1 1.4
2014-Sep-30 14:32N 53°35' E 000°27'0 0.0
2014-Sep-30 13:14N 53°35' E 000°27'0 0.0
2014-Sep-30 12:20N 53°35' E 000°27'0 0.0
2014-Sep-30 11:17N 53°35' E 000°27'0 0.0
2014-Sep-30 10:32N 53°35' E 000°27'0 0.1
2014-Sep-30 09:32N 53°35' E 000°27'0 0.0
2014-Sep-30 08:32N 53°35' E 000°27'0 0.0
2014-Sep-30 07:26N 53°35' E 000°27'0 0.0
2014-Sep-30 06:29N 53°35' E 000°27'0 0.0
2014-Sep-30 05:32N 53°35' E 000°27'0 0.0
2014-Sep-30 04:33N 53°35' E 000°27'8 7.6
2014-Sep-30 03:33N 53°33' E 000°15'1111.5
2014-Sep-30 02:34N 53°37' W 000°03'5 4.5
2014-Sep-30 01:26N 53°38' W 000°11'0 0.0
2014-Sep-30 00:26N 53°38' W 000°11'0 0.0
2014-Sep-29 23:26N 53°38' W 000°11'0 0.0
2014-Sep-29 22:29N 53°38' W 000°11'0 0.0
2014-Sep-29 21:23N 53°38' W 000°11'0 0.0
2014-Sep-29 20:29N 53°38' W 000°11'0 0.0
2014-Sep-29 19:32N 53°38' W 000°11'0 0.0
2014-Sep-29 18:32N 53°38' W 000°11'0 0.0
2014-Sep-29 17:32N 53°38' W 000°11'0 0.0
2014-Sep-29 16:32N 53°38' W 000°11'0 0.0
2014-Sep-29 15:32N 53°38' W 000°11'0 0.0
2014-Sep-29 14:32N 53°38' W 000°11'0 0.0
2014-Sep-29 13:23N 53°38' W 000°11'0 0.0
2014-Sep-29 12:26N 53°38' W 000°11'0 0.0
2014-Sep-29 11:17N 53°38' W 000°11'0 0.0
2014-Sep-29 10:27N 53°38' W 000°11'0 0.0
2014-Sep-29 09:33N 53°38' W 000°11'0 0.0
2014-Sep-29 08:33N 53°38' W 000°11'0 0.0
2014-Sep-29 07:34N 53°38' W 000°11'0 0.0
2014-Sep-29 06:34N 53°38' W 000°11'0 0.0
2014-Sep-29 05:33N 53°38' W 000°11'0 0.0
2014-Sep-29 04:33N 53°38' W 000°11'3 2.8
2014-Sep-29 03:33N 53°37' W 000°07'1313.0
2014-Sep-29 02:33N 53°33' E 000°14'6 5.6
2014-Sep-29 01:25N 53°36' E 000°24'0 0.0
2014-Sep-29 00:25N 53°36' E 000°24'0 0.0
2014-Sep-28 23:31N 53°36' E 000°24'0 0.0
2014-Sep-28 22:28N 53°36' E 000°24'0 0.0
2014-Sep-28 21:28N 53°36' E 000°24'0 0.1
2014-Sep-28 20:28N 53°36' E 000°24'0 0.0
2014-Sep-28 19:16N 53°36' E 000°24'0 0.0
2014-Sep-28 18:31N 53°36' E 000°24'0 0.0
2014-Sep-28 17:31N 53°36' E 000°24'0 0.0
2014-Sep-28 16:31N 53°36' E 000°24'0 0.1
2014-Sep-28 15:07N 53°36' E 000°24'0 0.1
2014-Sep-28 14:31N 53°36' E 000°24'0 0.0
2014-Sep-28 13:31N 53°36' E 000°24'0 0.0
2014-Sep-28 12:31N 53°36' E 000°24'0 0.0
2014-Sep-28 11:31N 53°36' E 000°24'0 0.0
2014-Sep-28 10:31N 53°36' E 000°24'0 0.0
2014-Sep-28 09:28N 53°36' E 000°24'0 0.1
2014-Sep-28 08:28N 53°36' E 000°24'0 0.0
2014-Sep-28 07:25N 53°36' E 000°24'0 0.0
2014-Sep-28 06:28N 53°36' E 000°24'0 0.0
2014-Sep-28 05:31N 53°36' E 000°24'0 0.0
2014-Sep-28 04:31N 53°36' E 000°24'0 0.1
2014-Sep-28 03:25N 53°36' E 000°23'0 0.1
2014-Sep-28 02:31N 53°36' E 000°23'0 0.0
2014-Sep-28 01:31N 53°36' E 000°23'0 0.0
2014-Sep-28 00:28N 53°36' E 000°23'0 0.3
2014-Sep-27 23:33N 53°36' E 000°23'1111.4
2014-Sep-27 22:33N 53°28' E 000°38'2311.2
2014-Sep-27 20:30N 53°17' E 001°12'1210.4
2014-Sep-27 19:22N 53°08' E 001°24'911.5
2014-Sep-27 18:33N 52°60' E 001°32'1312.8
2014-Sep-27 17:33N 52°50' E 001°45'1313.0
2014-Sep-27 16:33N 52°39' E 001°56'1515.0
2014-Sep-27 15:33N 52°24' E 001°54'1515.4
2014-Sep-27 14:33N 52°08' E 001°51'1615.6
2014-Sep-27 13:33N 51°53' E 001°49'1312.6
2014-Sep-27 12:33N 51°40' E 001°49'1212.3
2014-Sep-27 11:33N 51°28' E 001°55'9 8.7
2014-Sep-27 10:33N 51°20' E 001°58'1010.2
2014-Sep-27 09:33N 51°12' E 001°48'7 7.2
2014-Sep-27 08:33N 51°05' E 001°46'1 1.1
2014-Sep-27 07:34N 51°04' E 001°47'0 0.0
2014-Sep-27 06:33N 51°04' E 001°47'0 0.1
2014-Sep-27 05:33N 51°04' E 001°47'5 5.2
2014-Sep-27 04:33N 51°01' E 001°41'8 7.9
2014-Sep-27 03:33N 50°56' E 001°32'17 8.6
2014-Sep-27 01:32N 50°41' E 001°18'10 9.3
2014-Sep-27 00:28N 50°34' E 001°07'1213.4
2014-Sep-26 23:33N 50°27' E 000°51'1414.1
2014-Sep-26 22:34N 50°23' E 000°30'4310.8
2014-Sep-26 18:33N 49°44' E 000°01'1110.8
2014-Sep-26 17:33N 49°33' W 000°02'9 9.3
2014-Sep-26 16:33N 49°29' E 000°10'0 0.0
2014-Sep-26 15:33N 49°29' E 000°10'1 1.4
2014-Sep-26 14:33N 49°29' E 000°12'0 0.0
2014-Sep-26 13:33N 49°29' E 000°12'0 0.0
2014-Sep-26 12:33N 49°29' E 000°12'0 0.0
2014-Sep-26 11:33N 49°29' E 000°12'0 0.0
2014-Sep-26 10:33N 49°29' E 000°12'0 0.0
2014-Sep-26 09:33N 49°29' E 000°12'0 0.0
2014-Sep-26 08:33N 49°29' E 000°12'0 0.0
2014-Sep-26 07:34N 49°29' E 000°12'0 0.0
2014-Sep-26 06:33N 49°29' E 000°12'0 0.0
2014-Sep-26 05:34N 49°29' E 000°12'0 0.0
2014-Sep-26 04:34N 49°29' E 000°12'0 0.0
2014-Sep-26 03:34N 49°29' E 000°12'0 0.0
2014-Sep-26 02:34N 49°29' E 000°12'0 0.0
2014-Sep-26 01:34N 49°29' E 000°12'0 0.0
2014-Sep-26 00:33N 49°29' E 000°12'0 0.0
2014-Sep-25 23:34N 49°29' E 000°12'0 0.0
2014-Sep-25 22:34N 49°29' E 000°12'0 0.0
2014-Sep-25 21:34N 49°29' E 000°12'0 0.0
2014-Sep-25 20:34N 49°29' E 000°12'0 0.0
2014-Sep-25 19:32N 49°29' E 000°12'0 0.0
2014-Sep-25 18:34N 49°29' E 000°12'0 0.0
2014-Sep-25 17:33N 49°29' E 000°12'0 0.0
2014-Sep-25 16:34N 49°29' E 000°12'0 0.0
2014-Sep-25 15:34N 49°29' E 000°12'1 1.1
2014-Sep-25 14:28N 49°28' E 000°14'0 0.0
2014-Sep-25 13:33N 49°28' E 000°14'0 0.0
2014-Sep-25 12:33N 49°28' E 000°14'0 0.0
2014-Sep-25 11:33N 49°28' E 000°14'0 0.0
2014-Sep-25 10:33N 49°28' E 000°14'0 0.0
2014-Sep-25 09:33N 49°28' E 000°14'0 0.0
2014-Sep-25 08:33N 49°28' E 000°14'0 0.0
2014-Sep-25 07:33N 49°28' E 000°14'0 0.0
2014-Sep-25 06:33N 49°28' E 000°14'0 0.0
2014-Sep-25 05:33N 49°28' E 000°14'0 0.0
2014-Sep-25 04:33N 49°28' E 000°14'0 0.0
2014-Sep-25 03:33N 49°28' E 000°14'0 0.0
2014-Sep-25 02:33N 49°28' E 000°14'0 0.0
2014-Sep-25 01:33N 49°28' E 000°14'0 0.0
2014-Sep-25 00:33N 49°28' E 000°14'0 0.0
2014-Sep-24 23:33N 49°28' E 000°14'0 0.0
2014-Sep-24 22:33N 49°28' E 000°14'0 0.0
2014-Sep-24 21:33N 49°28' E 000°14'0 0.0
2014-Sep-24 20:33N 49°28' E 000°14'0 0.0
2014-Sep-24 19:33N 49°28' E 000°14'0 0.0
2014-Sep-24 18:33N 49°28' E 000°14'0 0.0
2014-Sep-24 17:33N 49°28' E 000°14'0 0.0
2014-Sep-24 16:33N 49°28' E 000°14'0 0.0
2014-Sep-24 15:33N 49°28' E 000°14'3 2.5
2014-Sep-24 14:33N 49°29' E 000°10'3 3.4
2014-Sep-24 13:33N 49°29' E 000°05'1312.7
2014-Sep-24 12:33N 49°33' W 000°14'1212.2
2014-Sep-24 11:33N 49°36' W 000°32'  
2014-Sep-21 01:07N 47°03' W 002°31'811.7
2014-Sep-21 00:27N 46°59' W 002°41'1411.4
2014-Sep-20 23:15N 46°51' W 002°57'5611.9
2014-Sep-20 18:31N 46°19' W 004°04'1211.7
2014-Sep-20 17:30N 46°12' W 004°18'  
Track history (hours):
 
Tides and Currents Weather Stations Pressure Air Temp Water Temp Dewpoint Dewpoint Depression Visibility Wind Speed Wind Dir Waves Ship Positions

Othello

Last reported at 2014-Sep-30 15:34 UTC. Time now 2014-Sep-30 16:01 UTC.
Position N 53°34' E 000°25'.

Length 104 m; draft 7.4 m.

Type: Ship. MMSI: 253279000.

Date/timePositionNaut miles runAvg speedWind from/ knotsBaromVisibWave heightAir tempDewpointWater temp
2014-Sep-30 15:34N 53°34' E 000°25'1 1.4
2014-Sep-30 14:32N 53°35' E 000°27'0 0.0
2014-Sep-30 13:14N 53°35' E 000°27'0 0.0
2014-Sep-30 12:20N 53°35' E 000°27'0 0.0
2014-Sep-30 11:17N 53°35' E 000°27'0 0.0
2014-Sep-30 10:32N 53°35' E 000°27'0 0.1
2014-Sep-30 09:32N 53°35' E 000°27'0 0.0
2014-Sep-30 08:32N 53°35' E 000°27'0 0.0
2014-Sep-30 07:26N 53°35' E 000°27'0 0.0
2014-Sep-30 06:29N 53°35' E 000°27'0 0.0
2014-Sep-30 05:32N 53°35' E 000°27'0 0.0
2014-Sep-30 04:33N 53°35' E 000°27'8 7.6
2014-Sep-30 03:33N 53°33' E 000°15'1111.5
2014-Sep-30 02:34N 53°37' W 000°03'5 4.5
2014-Sep-30 01:26N 53°38' W 000°11'0 0.0
2014-Sep-30 00:26N 53°38' W 000°11'0 0.0
2014-Sep-29 23:26N 53°38' W 000°11'0 0.0
2014-Sep-29 22:29N 53°38' W 000°11'0 0.0
2014-Sep-29 21:23N 53°38' W 000°11'0 0.0
2014-Sep-29 20:29N 53°38' W 000°11'0 0.0
2014-Sep-29 19:32N 53°38' W 000°11'0 0.0
2014-Sep-29 18:32N 53°38' W 000°11'0 0.0
2014-Sep-29 17:32N 53°38' W 000°11'0 0.0
2014-Sep-29 16:32N 53°38' W 000°11'0 0.0
2014-Sep-29 15:32N 53°38' W 000°11'0 0.0
2014-Sep-29 14:32N 53°38' W 000°11'0 0.0
2014-Sep-29 13:23N 53°38' W 000°11'0 0.0
2014-Sep-29 12:26N 53°38' W 000°11'0 0.0
2014-Sep-29 11:17N 53°38' W 000°11'0 0.0
2014-Sep-29 10:27N 53°38' W 000°11'0 0.0
2014-Sep-29 09:33N 53°38' W 000°11'0 0.0
2014-Sep-29 08:33N 53°38' W 000°11'0 0.0
2014-Sep-29 07:34N 53°38' W 000°11'0 0.0
2014-Sep-29 06:34N 53°38' W 000°11'0 0.0
2014-Sep-29 05:33N 53°38' W 000°11'0 0.0
2014-Sep-29 04:33N 53°38' W 000°11'3 2.8
2014-Sep-29 03:33N 53°37' W 000°07'1313.0
2014-Sep-29 02:33N 53°33' E 000°14'6 5.6
2014-Sep-29 01:25N 53°36' E 000°24'0 0.0
2014-Sep-29 00:25N 53°36' E 000°24'0 0.0
2014-Sep-28 23:31N 53°36' E 000°24'0 0.0
2014-Sep-28 22:28N 53°36' E 000°24'0 0.0
2014-Sep-28 21:28N 53°36' E 000°24'0 0.1
2014-Sep-28 20:28N 53°36' E 000°24'0 0.0
2014-Sep-28 19:16N 53°36' E 000°24'0 0.0
2014-Sep-28 18:31N 53°36' E 000°24'0 0.0
2014-Sep-28 17:31N 53°36' E 000°24'0 0.0
2014-Sep-28 16:31N 53°36' E 000°24'0 0.1
2014-Sep-28 15:07N 53°36' E 000°24'0 0.1
2014-Sep-28 14:31N 53°36' E 000°24'0 0.0
2014-Sep-28 13:31N 53°36' E 000°24'0 0.0
2014-Sep-28 12:31N 53°36' E 000°24'0 0.0
2014-Sep-28 11:31N 53°36' E 000°24'0 0.0
2014-Sep-28 10:31N 53°36' E 000°24'0 0.0
2014-Sep-28 09:28N 53°36' E 000°24'0 0.1
2014-Sep-28 08:28N 53°36' E 000°24'0 0.0
2014-Sep-28 07:25N 53°36' E 000°24'0 0.0
2014-Sep-28 06:28N 53°36' E 000°24'0 0.0
2014-Sep-28 05:31N 53°36' E 000°24'0 0.0
2014-Sep-28 04:31N 53°36' E 000°24'0 0.1
2014-Sep-28 03:25N 53°36' E 000°23'0 0.1
2014-Sep-28 02:31N 53°36' E 000°23'0 0.0
2014-Sep-28 01:31N 53°36' E 000°23'0 0.0
2014-Sep-28 00:28N 53°36' E 000°23'0 0.3
2014-Sep-27 23:33N 53°36' E 000°23'1111.4
2014-Sep-27 22:33N 53°28' E 000°38'2311.2
2014-Sep-27 20:30N 53°17' E 001°12'1210.4
2014-Sep-27 19:22N 53°08' E 001°24'911.5
2014-Sep-27 18:33N 52°60' E 001°32'1312.8
2014-Sep-27 17:33N 52°50' E 001°45'1313.0
2014-Sep-27 16:33N 52°39' E 001°56'1515.0
2014-Sep-27 15:33N 52°24' E 001°54'1515.4
2014-Sep-27 14:33N 52°08' E 001°51'1615.6
2014-Sep-27 13:33N 51°53' E 001°49'1312.6
2014-Sep-27 12:33N 51°40' E 001°49'1212.3
2014-Sep-27 11:33N 51°28' E 001°55'9 8.7
2014-Sep-27 10:33N 51°20' E 001°58'1010.2
2014-Sep-27 09:33N 51°12' E 001°48'7 7.2
2014-Sep-27 08:33N 51°05' E 001°46'1 1.1
2014-Sep-27 07:34N 51°04' E 001°47'0 0.0
2014-Sep-27 06:33N 51°04' E 001°47'0 0.1
2014-Sep-27 05:33N 51°04' E 001°47'5 5.2
2014-Sep-27 04:33N 51°01' E 001°41'8 7.9
2014-Sep-27 03:33N 50°56' E 001°32'17 8.6
2014-Sep-27 01:32N 50°41' E 001°18'10 9.3
2014-Sep-27 00:28N 50°34' E 001°07'1213.4
2014-Sep-26 23:33N 50°27' E 000°51'1414.1
2014-Sep-26 22:34N 50°23' E 000°30'4310.8
2014-Sep-26 18:33N 49°44' E 000°01'1110.8
2014-Sep-26 17:33N 49°33' W 000°02'9 9.3
2014-Sep-26 16:33N 49°29' E 000°10'0 0.0
2014-Sep-26 15:33N 49°29' E 000°10'1 1.4
2014-Sep-26 14:33N 49°29' E 000°12'0 0.0
2014-Sep-26 13:33N 49°29' E 000°12'0 0.0
2014-Sep-26 12:33N 49°29' E 000°12'0 0.0
2014-Sep-26 11:33N 49°29' E 000°12'0 0.0
2014-Sep-26 10:33N 49°29' E 000°12'0 0.0
2014-Sep-26 09:33N 49°29' E 000°12'0 0.0
2014-Sep-26 08:33N 49°29' E 000°12'0 0.0
2014-Sep-26 07:34N 49°29' E 000°12'0 0.0
2014-Sep-26 06:33N 49°29' E 000°12'0 0.0
2014-Sep-26 05:34N 49°29' E 000°12'0 0.0
2014-Sep-26 04:34N 49°29' E 000°12'0 0.0
2014-Sep-26 03:34N 49°29' E 000°12'0 0.0
2014-Sep-26 02:34N 49°29' E 000°12'0 0.0
2014-Sep-26 01:34N 49°29' E 000°12'0 0.0
2014-Sep-26 00:33N 49°29' E 000°12'0 0.0
2014-Sep-25 23:34N 49°29' E 000°12'0 0.0
2014-Sep-25 22:34N 49°29' E 000°12'0 0.0
2014-Sep-25 21:34N 49°29' E 000°12'0 0.0
2014-Sep-25 20:34N 49°29' E 000°12'0 0.0
2014-Sep-25 19:32N 49°29' E 000°12'0 0.0
2014-Sep-25 18:34N 49°29' E 000°12'0 0.0
2014-Sep-25 17:33N 49°29' E 000°12'0 0.0
2014-Sep-25 16:34N 49°29' E 000°12'0 0.0
2014-Sep-25 15:34N 49°29' E 000°12'1 1.1
2014-Sep-25 14:28N 49°28' E 000°14'0 0.0
2014-Sep-25 13:33N 49°28' E 000°14'0 0.0
2014-Sep-25 12:33N 49°28' E 000°14'0 0.0
2014-Sep-25 11:33N 49°28' E 000°14'0 0.0
2014-Sep-25 10:33N 49°28' E 000°14'0 0.0
2014-Sep-25 09:33N 49°28' E 000°14'0 0.0
2014-Sep-25 08:33N 49°28' E 000°14'0 0.0
2014-Sep-25 07:33N 49°28' E 000°14'0 0.0
2014-Sep-25 06:33N 49°28' E 000°14'0 0.0
2014-Sep-25 05:33N 49°28' E 000°14'0 0.0
2014-Sep-25 04:33N 49°28' E 000°14'0 0.0
2014-Sep-25 03:33N 49°28' E 000°14'0 0.0
2014-Sep-25 02:33N 49°28' E 000°14'0 0.0
2014-Sep-25 01:33N 49°28' E 000°14'0 0.0
2014-Sep-25 00:33N 49°28' E 000°14'0 0.0
2014-Sep-24 23:33N 49°28' E 000°14'0 0.0
2014-Sep-24 22:33N 49°28' E 000°14'0 0.0
2014-Sep-24 21:33N 49°28' E 000°14'0 0.0
2014-Sep-24 20:33N 49°28' E 000°14'0 0.0
2014-Sep-24 19:33N 49°28' E 000°14'0 0.0
2014-Sep-24 18:33N 49°28' E 000°14'0 0.0
2014-Sep-24 17:33N 49°28' E 000°14'0 0.0
2014-Sep-24 16:33N 49°28' E 000°14'0 0.0
2014-Sep-24 15:33N 49°28' E 000°14'3 2.5
2014-Sep-24 14:33N 49°29' E 000°10'3 3.4
2014-Sep-24 13:33N 49°29' E 000°05'1312.7
2014-Sep-24 12:33N 49°33' W 000°14'1212.2
2014-Sep-24 11:33N 49°36' W 000°32'  
2014-Sep-21 01:07N 47°03' W 002°31'811.7
2014-Sep-21 00:27N 46°59' W 002°41'1411.4
2014-Sep-20 23:15N 46°51' W 002°57'5611.9
2014-Sep-20 18:31N 46°19' W 004°04'1211.7
2014-Sep-20 17:30N 46°12' W 004°18'  

Dump ship's entire track history